Time;durP1;ratioP1;P1;durP2;ratioP2;P2;SDS_P1;SDS_P2;PMS_P1;PMS_P2;Temp;Humidity;BMP_temperature;BMP_pressure;BME280_temperature;BME280_humidity;BME280_pressure;Samples;Min_cycle;Max_cycle;Signal;HPM_P1;HPM_P2
2020/12/11 00:01:35;;;;;;;2.63;2.30;;;21.00;42.90;;;;;;5033642;28;20029;-45
2020/12/11 00:04:01;;;;;;;2.83;2.38;;;20.90;42.90;;;;;;5028381;28;20030;-44
2020/12/11 00:06:27;;;;;;;4.57;2.75;;;20.90;42.90;;;;;;5031463;28;20505;-47
2020/12/11 00:08:53;;;;;;;3.70;2.55;;;20.90;42.70;;;;;;5030779;28;20802;-47
2020/12/11 00:11:27;;;;;;;2.78;2.00;;;20.90;42.80;;;;;;5031467;28;20096;-43
2020/12/11 00:13:52;;;;;;;4.07;2.00;;;20.90;42.80;;;;;;5028612;28;20490;-49
2020/12/11 00:16:19;;;;;;;2.53;2.20;;;20.90;42.60;;;;;;5031580;28;20083;-46
2020/12/11 00:18:45;;;;;;;3.67;2.50;;;20.80;42.60;;;;;;5029998;28;20029;-43
2020/12/11 00:21:10;;;;;;;3.05;2.30;;;20.80;42.60;;;;;;5031523;28;20083;-43
2020/12/11 00:23:36;;;;;;;3.30;2.53;;;20.80;42.50;;;;;;5027463;28;20030;-43
2020/12/11 00:26:01;;;;;;;2.92;2.17;;;20.80;42.60;;;;;;5008994;28;621613;-43
2020/12/11 00:28:28;;;;;;;3.05;2.45;;;20.80;42.40;;;;;;5031566;28;20025;-44
2020/12/11 00:30:55;;;;;;;2.83;2.03;;;20.80;42.40;;;;;;5032066;28;20041;-43
2020/12/11 00:33:28;;;;;;;2.60;2.03;;;20.70;42.30;;;;;;5032346;28;20033;-44
2020/12/11 00:35:54;;;;;;;3.92;2.05;;;20.70;42.40;;;;;;5030043;28;20030;-43
2020/12/11 00:38:20;;;;;;;2.88;2.00;;;20.70;42.30;;;;;;5032352;28;20462;-46
2020/12/11 00:40:46;;;;;;;3.33;2.05;;;20.70;42.30;;;;;;5031261;28;20531;-43
2020/12/11 00:43:12;;;;;;;2.40;2.10;;;20.70;42.30;;;;;;5032087;28;20109;-43
2020/12/11 00:45:39;;;;;;;2.42;2.20;;;20.70;42.30;;;;;;5033762;28;20451;-44
2020/12/11 00:48:04;;;;;;;2.55;2.05;;;20.70;42.20;;;;;;5032299;28;20484;-43
2020/12/11 00:50:30;;;;;;;3.60;2.50;;;20.70;42.20;;;;;;5034073;28;20108;-43
2020/12/11 00:52:55;;;;;;;2.75;2.10;;;20.70;42.20;;;;;;5032666;28;20029;-45
2020/12/11 00:55:21;;;;;;;2.35;2.00;;;20.70;42.20;;;;;;5025311;28;20113;-43
2020/12/11 00:57:50;;;;;;;3.05;2.00;;;20.70;42.10;;;;;;5032617;28;20029;-43
2020/12/11 01:00:17;;;;;;;2.45;1.90;;;20.70;42.10;;;;;;5033842;28;20037;-43
2020/12/11 01:02:42;;;;;;;2.00;1.80;;;20.70;42.10;;;;;;5033323;28;20036;-54
2020/12/11 01:05:08;;;;;;;2.72;1.85;;;20.70;42.10;;;;;;5033364;28;20035;-44
2020/12/11 01:07:34;;;;;;;2.95;1.83;;;20.70;42.00;;;;;;5033030;28;20091;-44
2020/12/11 01:10:00;;;;;;;3.80;1.83;;;20.70;42.00;;;;;;5032074;28;20219;-43
2020/12/11 01:12:27;;;;;;;2.00;1.80;;;20.70;42.00;;;;;;5033196;28;20087;-43
2020/12/11 01:14:53;;;;;;;2.65;1.90;;;20.70;42.00;;;;;;5032118;28;20459;-43
2020/12/11 01:17:19;;;;;;;3.40;2.20;;;20.70;42.00;;;;;;5033106;28;20151;-45
2020/12/11 01:19:44;;;;;;;2.25;1.90;;;20.70;42.00;;;;;;5032069;28;20139;-47
2020/12/11 01:22:11;;;;;;;2.70;1.95;;;20.70;41.90;;;;;;5032809;28;20553;-43
2020/12/11 01:24:37;;;;;;;2.58;1.60;;;20.70;41.90;;;;;;5032497;28;20046;-43
2020/12/11 01:27:02;;;;;;;2.65;1.80;;;20.70;41.90;;;;;;5031895;28;20033;-42
2020/12/11 01:29:28;;;;;;;3.00;1.80;;;20.60;41.80;;;;;;5031674;28;20065;-43
2020/12/11 01:31:58;;;;;;;2.95;1.80;;;20.70;41.80;;;;;;5031698;28;20021;-43
2020/12/11 01:34:24;;;;;;;2.55;1.80;;;20.60;41.70;;;;;;5032899;28;20042;-43
2020/12/11 01:36:49;;;;;;;2.05;1.65;;;20.60;41.80;;;;;;5031683;28;20441;-52
2020/12/11 01:39:15;;;;;;;2.28;1.60;;;20.60;41.70;;;;;;5023287;28;20068;-43
2020/12/11 01:41:41;;;;;;;2.30;1.92;;;20.60;41.70;;;;;;5032439;28;20029;-58
2020/12/11 01:44:08;;;;;;;2.45;1.73;;;20.60;41.60;;;;;;5031873;28;20025;-43
2020/12/11 01:46:39;;;;;;;2.30;1.65;;;20.60;41.60;;;;;;5032559;28;20033;-43
2020/12/11 01:49:05;;;;;;;2.07;1.70;;;20.60;41.60;;;;;;5030333;28;20777;-43
2020/12/11 01:51:33;;;;;;;2.05;1.50;;;20.60;41.60;;;;;;5032659;28;20676;-43
2020/12/11 01:53:59;;;;;;;1.67;1.50;;;20.60;41.60;;;;;;5031252;28;20057;-44
2020/12/11 01:56:29;;;;;;;2.92;1.90;;;20.60;41.60;;;;;;5032101;28;20422;-43
2020/12/11 01:59:01;;;;;;;1.30;1.20;;;20.60;41.50;;;;;;5031094;28;20429;-43
2020/12/11 02:01:30;;;;;;;2.25;1.75;;;20.60;41.50;;;;;;5024946;28;20029;-43
2020/12/11 02:03:56;;;;;;;2.67;1.85;;;20.60;41.50;;;;;;5029799;28;20065;-43
2020/12/11 02:06:22;;;;;;;1.50;1.27;;;20.60;41.50;;;;;;5032251;28;20075;-43
2020/12/11 02:08:49;;;;;;;2.25;1.77;;;20.60;41.50;;;;;;5031039;28;20045;-43
2020/12/11 02:11:21;;;;;;;1.95;1.20;;;20.60;41.50;;;;;;5030803;28;20471;-43
2020/12/11 02:13:47;;;;;;;2.08;1.50;;;20.60;41.50;;;;;;5031258;28;20375;-44
2020/12/11 02:16:13;;;;;;;2.13;1.50;;;20.60;41.50;;;;;;5031807;28;20025;-43
2020/12/11 02:18:40;;;;;;;2.55;1.48;;;20.60;41.40;;;;;;5031902;28;20463;-44
2020/12/11 02:21:06;;;;;;;2.38;1.40;;;20.60;41.40;;;;;;5031024;28;20819;-43
2020/12/11 02:23:32;;;;;;;1.67;1.45;;;20.60;41.40;;;;;;5031523;28;20053;-49
2020/12/11 02:25:58;;;;;;;2.08;1.50;;;20.60;42.00;;;;;;5030707;28;20061;-43
2020/12/11 02:28:30;;;;;;;1.90;1.52;;;20.60;41.40;;;;;;5031821;28;20418;-42
2020/12/11 02:30:59;;;;;;;2.30;1.65;;;20.60;41.30;;;;;;5030852;28;20482;-43
2020/12/11 02:33:25;;;;;;;2.33;1.63;;;20.60;41.30;;;;;;5031536;28;20183;-53
2020/12/11 02:35:51;;;;;;;2.83;1.75;;;20.60;41.30;;;;;;5031176;28;20120;-43
2020/12/11 02:38:16;;;;;;;1.77;1.67;;;20.60;41.30;;;;;;5031531;28;20382;-44
2020/12/11 02:40:50;;;;;;;1.88;1.50;;;20.60;41.30;;;;;;5031054;28;20025;-43
2020/12/11 02:43:16;;;;;;;2.30;1.70;;;20.60;41.30;;;;;;5031566;28;20128;-45
2020/12/11 02:45:45;;;;;;;1.70;1.48;;;20.60;41.30;;;;;;5046793;28;20490;-43
2020/12/11 02:48:11;;;;;;;1.42;1.20;;;20.60;41.20;;;;;;5031369;28;20469;-43
2020/12/11 02:50:37;;;;;;;2.35;1.67;;;20.60;41.20;;;;;;5031337;28;20032;-43
2020/12/11 02:53:03;;;;;;;1.35;1.20;;;20.60;41.20;;;;;;5031053;28;20124;-44
2020/12/11 02:55:28;;;;;;;1.73;1.40;;;20.60;41.20;;;;;;5031556;28;20034;-42
2020/12/11 02:57:54;;;;;;;1.60;1.27;;;20.60;41.20;;;;;;5030942;28;20562;-43
2020/12/11 03:00:19;;;;;;;1.63;1.35;;;20.60;41.20;;;;;;5031312;28;20033;-43
2020/12/11 03:02:45;;;;;;;1.73;1.50;;;20.60;41.10;;;;;;5030938;28;20034;-62
2020/12/11 03:05:11;;;;;;;1.90;1.40;;;20.60;41.10;;;;;;5031016;28;20037;-43
2020/12/11 03:07:37;;;;;;;2.20;1.50;;;20.60;41.10;;;;;;5031101;28;20025;-48
2020/12/11 03:10:03;;;;;;;1.38;1.13;;;20.60;41.10;;;;;;5030296;28;20060;-43
2020/12/11 03:12:29;;;;;;;1.73;1.40;;;20.60;41.10;;;;;;5030180;28;20041;-43
2020/12/11 03:14:54;;;;;;;1.92;1.55;;;20.60;41.10;;;;;;5030362;28;20025;-43
2020/12/11 03:17:20;;;;;;;1.48;1.10;;;20.60;41.00;;;;;;5031586;28;20025;-43
2020/12/11 03:19:45;;;;;;;1.83;1.60;;;20.60;41.00;;;;;;5030784;28;20032;-60
2020/12/11 03:22:11;;;;;;;2.83;1.42;;;20.60;41.00;;;;;;5030863;28;20086;-43
2020/12/11 03:24:37;;;;;;;1.52;1.38;;;20.60;41.00;;;;;;5030720;28;20102;-43
2020/12/11 03:27:02;;;;;;;1.98;1.55;;;20.60;41.00;;;;;;5030372;28;20073;-44
2020/12/11 03:29:28;;;;;;;2.35;1.58;;;20.60;41.00;;;;;;5030696;28;20038;-44
2020/12/11 03:31:53;;;;;;;2.13;1.58;;;20.60;41.00;;;;;;5030484;28;20036;-44
2020/12/11 03:34:19;;;;;;;2.63;1.60;;;20.60;40.90;;;;;;5031169;28;20109;-44
2020/12/11 03:36:48;;;;;;;2.88;1.50;;;20.60;41.00;;;;;;5030476;28;20398;-58
2020/12/11 03:39:13;;;;;;;1.63;1.40;;;20.60;40.90;;;;;;5031331;28;20041;-44
2020/12/11 03:41:39;;;;;;;2.25;1.50;;;20.60;40.90;;;;;;5031092;28;20451;-43
2020/12/11 03:44:05;;;;;;;1.48;1.38;;;20.60;40.80;;;;;;5030090;28;20098;-52
2020/12/11 03:46:30;;;;;;;1.45;1.33;;;20.60;40.90;;;;;;5030538;28;20053;-43
2020/12/11 03:48:56;;;;;;;2.00;1.80;;;20.60;40.80;;;;;;5030278;28;20034;-46
2020/12/11 03:51:23;;;;;;;2.05;1.50;;;20.60;40.80;;;;;;5030930;28;20060;-51
2020/12/11 03:53:50;;;;;;;2.38;1.33;;;20.60;40.90;;;;;;5023822;28;20061;-60
2020/12/11 03:56:17;;;;;;;1.70;1.38;;;20.60;40.80;;;;;;5034556;28;20116;-43
2020/12/11 03:58:43;;;;;;;1.70;1.50;;;20.60;40.80;;;;;;5033979;28;20068;-44
2020/12/11 04:01:13;;;;;;;2.38;1.33;;;20.60;40.80;;;;;;5033760;28;20038;-44
2020/12/11 04:03:39;;;;;;;2.00;1.25;;;20.60;40.80;;;;;;5033967;28;20022;-43
2020/12/11 04:06:10;;;;;;;2.22;1.80;;;20.60;40.80;;;;;;5033218;28;20132;-43
2020/12/11 04:08:37;;;;;;;1.67;1.48;;;20.60;40.80;;;;;;5034527;28;20128;-44
2020/12/11 04:11:10;;;;;;;2.80;1.50;;;20.60;40.80;;;;;;5033112;28;20482;-43
2020/12/11 04:13:36;;;;;;;2.47;1.50;;;20.60;40.80;;;;;;5034324;28;20033;-43
2020/12/11 04:16:03;;;;;;;1.85;1.40;;;20.60;40.80;;;;;;5033398;28;20103;-43
2020/12/11 04:18:29;;;;;;;2.05;1.85;;;20.60;40.80;;;;;;5032678;28;20493;-43
2020/12/11 04:20:58;;;;;;;1.67;1.50;;;20.60;40.80;;;;;;5033470;28;20112;-43
2020/12/11 04:23:25;;;;;;;1.90;1.70;;;20.60;40.70;;;;;;5033598;28;20025;-43
2020/12/11 04:25:52;;;;;;;2.03;1.63;;;20.60;40.70;;;;;;5033102;28;20425;-44
2020/12/11 04:28:18;;;;;;;1.80;1.50;;;20.60;40.70;;;;;;5034085;28;20025;-43
2020/12/11 04:30:44;;;;;;;1.33;1.20;;;20.60;40.70;;;;;;5033836;28;20406;-43
2020/12/11 04:33:09;;;;;;;1.63;1.30;;;20.60;40.70;;;;;;5032993;28;20021;-42
2020/12/11 04:35:35;;;;;;;1.85;1.63;;;20.60;40.70;;;;;;5033630;28;20466;-44
2020/12/11 04:38:02;;;;;;;1.75;1.40;;;20.60;40.60;;;;;;5033107;28;20059;-43
2020/12/11 04:40:28;;;;;;;2.65;2.28;;;20.70;40.70;;;;;;5033578;28;20080;-42
2020/12/11 04:42:54;;;;;;;1.90;1.60;;;20.70;40.70;;;;;;5032988;28;20026;-43
2020/12/11 04:45:22;;;;;;;1.70;1.38;;;20.70;40.70;;;;;;5033700;28;20112;-43
2020/12/11 04:47:48;;;;;;;2.33;1.70;;;20.70;40.70;;;;;;5032975;28;20522;-59
2020/12/11 04:50:15;;;;;;;2.20;1.80;;;20.70;40.70;;;;;;5032877;28;20160;-44
2020/12/11 04:52:44;;;;;;;2.13;1.30;;;20.70;40.70;;;;;;5033587;28;20029;-43
2020/12/11 04:55:18;;;;;;;1.98;1.60;;;20.70;40.70;;;;;;5032255;28;20597;-45
2020/12/11 04:57:52;;;;;;;2.05;1.63;;;20.70;40.70;;;;;;5033322;28;20108;-43
2020/12/11 05:00:20;;;;;;;1.67;1.58;;;20.70;40.60;;;;;;5033319;28;20044;-43
2020/12/11 05:02:47;;;;;;;2.05;1.67;;;20.70;40.60;;;;;;5032668;28;20026;-43
2020/12/11 05:05:14;;;;;;;1.92;1.52;;;20.60;40.50;;;;;;5032644;28;20064;-43
2020/12/11 05:07:41;;;;;;;1.88;1.58;;;20.70;40.60;;;;;;5032974;28;20029;-45
2020/12/11 05:10:08;;;;;;;2.25;1.30;;;20.70;40.60;;;;;;5032178;28;20065;-46
2020/12/11 05:12:35;;;;;;;1.55;1.30;;;20.70;40.60;;;;;;5032763;28;20026;-45
2020/12/11 05:15:11;;;;;;;1.67;1.50;;;20.70;40.60;;;;;;5032186;28;20486;-44
2020/12/11 05:17:39;;;;;;;2.17;1.50;;;20.60;40.50;;;;;;5032877;28;20041;-52
2020/12/11 05:20:07;;;;;;;1.60;1.30;;;20.70;40.60;;;;;;5032068;28;20033;-45
2020/12/11 05:22:34;;;;;;;1.50;1.30;;;20.70;40.50;;;;;;5033092;28;20061;-44
2020/12/11 05:25:00;;;;;;;1.80;1.50;;;20.70;40.50;;;;;;5032055;28;20113;-45
2020/12/11 05:27:30;;;;;;;2.00;1.80;;;20.60;40.40;;;;;;5032443;28;20057;-43
2020/12/11 05:29:57;;;;;;;1.77;1.27;;;20.70;40.40;;;;;;5031654;28;20037;-43
2020/12/11 05:32:37;;;;;;;2.47;1.63;;;20.70;40.50;;;;;;5032955;28;20371;-44
2020/12/11 05:35:04;;;;;;;2.10;1.40;;;20.70;40.50;;;;;;5031654;28;20363;-43
2020/12/11 05:37:30;;;;;;;1.92;1.55;;;20.70;40.50;;;;;;5032768;28;20064;-43
2020/12/11 05:39:56;;;;;;;1.88;1.50;;;20.70;40.40;;;;;;5031589;28;20064;-45
2020/12/11 05:42:21;;;;;;;3.67;1.60;;;20.70;40.40;;;;;;5032149;28;20029;-42
2020/12/11 05:44:47;;;;;;;3.15;1.75;;;20.70;40.40;;;;;;5032364;28;20060;-43
2020/12/11 05:47:24;;;;;;;1.77;1.50;;;20.70;40.40;;;;;;5031694;28;20033;-43
2020/12/11 05:49:50;;;;;;;1.90;1.42;;;20.70;40.40;;;;;;5031985;28;20041;-60
2020/12/11 05:52:22;;;;;;;2.45;1.40;;;20.70;40.30;;;;;;5032055;28;20030;-43
2020/12/11 05:54:53;;;;;;;2.15;1.55;;;20.70;40.30;;;;;;5024093;28;20032;-43
2020/12/11 05:57:21;;;;;;;2.08;1.40;;;20.70;40.30;;;;;;5032285;28;20037;-43
2020/12/11 05:59:47;;;;;;;1.50;1.27;;;20.70;40.30;;;;;;5032136;28;20852;-41
2020/12/11 06:02:17;;;;;;;4.95;1.50;;;20.70;40.50;;;;;;5031308;28;20021;-42
2020/12/11 06:04:45;;;;;;;1.88;1.30;;;20.70;41.10;;;;;;5032582;28;20485;-42
2020/12/11 06:07:14;;;;;;;2.33;1.50;;;20.70;40.40;;;;;;5031263;28;20037;-43
2020/12/11 06:09:42;;;;;;;2.15;1.40;;;20.70;40.40;;;;;;5031826;28;20053;-42
2020/12/11 06:12:09;;;;;;;1.88;1.35;;;20.70;40.30;;;;;;5030965;28;20025;-42
2020/12/11 06:15:02;;;;;;;2.40;1.60;;;20.70;40.40;;;;;;5031949;28;20087;-43
2020/12/11 06:17:39;;;;;;;3.92;1.75;;;20.70;40.60;;;;;;5032147;28;20108;-43
2020/12/11 06:20:08;;;;;;;1.52;1.35;;;20.70;40.70;;;;;;5031025;28;20092;-43
2020/12/11 06:22:35;;;;;;;8.05;2.00;;;20.70;40.70;;;;;;5030446;28;20060;-55
2020/12/11 06:25:48;;;;;;;7.82;2.20;;;20.70;42.20;;;;;;5032391;28;20433;-43
2020/12/11 06:28:37;;;;;;;6.93;2.20;;;20.70;41.30;;;;;;4988044;28;20633;-43
2020/12/11 06:31:04;;;;;;;4.70;1.90;;;20.70;41.50;;;;;;4997931;28;20594;-43
2020/12/11 06:33:31;;;;;;;5.75;2.03;;;20.70;41.50;;;;;;5006193;28;20052;-43
2020/12/11 06:35:58;;;;;;;6.95;2.13;;;20.70;41.50;;;;;;4989532;28;20142;-44
2020/12/11 06:38:43;;;;;;;6.85;2.03;;;20.70;41.60;;;;;;5006450;28;20030;-43
2020/12/11 06:41:10;;;;;;;8.25;2.08;;;20.70;41.90;;;;;;5004747;28;20034;-44
2020/12/11 06:43:39;;;;;;;8.05;1.85;;;20.80;42.20;;;;;;5008650;28;20041;-44
2020/12/11 06:46:27;;;;;;;8.88;2.85;;;20.80;41.80;;;;;;5000009;28;20042;-50
2020/12/11 06:49:12;;;;;;;3.70;2.00;;;20.80;41.90;;;;;;4991507;28;20535;-58
2020/12/11 06:51:46;;;;;;;4.68;2.10;;;20.80;42.10;;;;;;5000926;28;20042;-43
2020/12/11 06:54:35;;;;;;;8.40;2.05;;;20.80;42.20;;;;;;5005656;28;20694;-47
2020/12/11 06:57:01;;;;;;;5.38;2.10;;;20.70;42.10;;;;;;4991427;28;20060;-44
2020/12/11 06:59:33;;;;;;;6.43;2.08;;;20.80;42.20;;;;;;5024194;28;20053;-43
2020/12/11 07:02:01;;;;;;;4.95;1.58;;;20.70;42.20;;;;;;5030388;28;20030;-48
2020/12/11 07:04:40;;;;;;;6.60;2.22;;;20.80;42.20;;;;;;5030975;28;20359;-44
2020/12/11 07:07:06;;;;;;;4.45;2.00;;;20.80;42.20;;;;;;5030277;28;20029;-46
2020/12/11 07:09:38;;;;;;;3.20;2.00;;;20.70;42.10;;;;;;5030839;28;20038;-46
2020/12/11 07:12:04;;;;;;;3.70;1.88;;;20.80;42.20;;;;;;5030308;28;20104;-43
2020/12/11 07:14:30;;;;;;;2.83;1.80;;;20.80;42.10;;;;;;5031202;28;20437;-44
2020/12/11 07:16:56;;;;;;;4.50;1.92;;;20.80;42.10;;;;;;5030558;28;20025;-59
2020/12/11 07:19:21;;;;;;;2.65;1.55;;;20.80;42.10;;;;;;5030749;28;20124;-43
2020/12/11 07:21:48;;;;;;;4.25;1.95;;;20.80;42.10;;;;;;5030676;28;20022;-43
2020/12/11 07:24:14;;;;;;;4.22;1.90;;;20.80;42.00;;;;;;5029955;28;20032;-47
2020/12/11 07:26:40;;;;;;;7.88;3.08;;;20.80;42.00;;;;;;5030898;28;20053;-44
2020/12/11 07:29:11;;;;;;;3.58;2.38;;;20.80;42.00;;;;;;5034076;28;20124;-43
2020/12/11 07:31:46;;;;;;;3.35;2.00;;;20.80;42.00;;;;;;5035104;28;20030;-43
2020/12/11 07:34:17;;;;;;;2.88;1.83;;;20.80;42.00;;;;;;5033646;28;20029;-43
2020/12/11 07:36:57;;;;;;;4.03;1.70;;;20.80;42.00;;;;;;5033432;28;20116;-43
2020/12/11 07:39:27;;;;;;;2.75;1.63;;;20.80;42.00;;;;;;5034489;28;20536;-45
2020/12/11 07:41:54;;;;;;;4.38;1.90;;;20.70;41.90;;;;;;5034693;28;20068;-43
2020/12/11 07:44:31;;;;;;;3.47;1.92;;;20.80;42.00;;;;;;5033778;28;20125;-43
2020/12/11 07:46:59;;;;;;;3.33;1.60;;;20.80;42.00;;;;;;5037346;28;20034;-60
2020/12/11 07:49:34;;;;;;;3.72;2.17;;;20.80;42.00;;;;;;5034836;28;20030;-42
2020/12/11 07:52:01;;;;;;;5.13;2.00;;;20.90;42.00;;;;;;5033587;28;20041;-50
2020/12/11 07:54:40;;;;;;;3.53;1.73;;;20.90;42.40;;;;;;5026400;28;20056;-42
2020/12/11 07:57:15;;;;;;;4.07;1.77;;;20.90;41.50;;;;;;5032581;28;20534;-42
2020/12/11 07:59:42;;;;;;;2.03;1.48;;;20.90;41.50;;;;;;5027273;28;20045;-43
2020/12/11 08:02:08;;;;;;;4.95;1.75;;;20.90;41.40;;;;;;5033638;28;20032;-42
2020/12/11 08:04:37;;;;;;;3.67;2.30;;;20.90;41.40;;;;;;5033184;28;20040;-43
2020/12/11 08:07:03;;;;;;;2.15;1.75;;;20.90;41.30;;;;;;5033113;28;20382;-42
2020/12/11 08:09:31;;;;;;;5.20;2.05;;;20.90;41.30;;;;;;5032910;28;20437;-42
2020/12/11 08:12:17;;;;;;;2.80;1.67;;;20.90;41.30;;;;;;5032091;28;20463;-56
2020/12/11 08:14:43;;;;;;;2.53;1.65;;;21.00;41.30;;;;;;5033653;28;20382;-44
2020/12/11 08:17:13;;;;;;;5.05;1.90;;;21.00;41.30;;;;;;5031893;28;20424;-42
2020/12/11 08:19:43;;;;;;;4.90;1.85;;;21.00;41.20;;;;;;5034253;28;20431;-42
2020/12/11 08:22:16;;;;;;;10.65;2.15;;;21.00;41.10;;;;;;5032817;28;20026;-42
2020/12/11 08:24:45;;;;;;;2.63;2.00;;;21.00;41.00;;;;;;5033819;28;20557;-43
2020/12/11 08:27:21;;;;;;;3.58;1.70;;;21.00;40.90;;;;;;5032950;28;20045;-42
2020/12/11 08:30:04;;;;;;;2.15;1.73;;;21.00;40.90;;;;;;5033970;28;20040;-44
2020/12/11 08:32:31;;;;;;;3.10;1.80;;;21.10;40.80;;;;;;5033500;28;20033;-43
2020/12/11 08:34:57;;;;;;;4.25;1.70;;;21.10;41.00;;;;;;5033213;28;20029;-56
2020/12/11 08:37:23;;;;;;;4.05;1.80;;;21.20;41.00;;;;;;5033757;28;20455;-41
2020/12/11 08:39:48;;;;;;;2.72;2.38;;;21.10;40.70;;;;;;5033123;28;20105;-43
2020/12/11 08:42:27;;;;;;;2.33;1.70;;;21.20;40.70;;;;;;5032955;28;20079;-44
2020/12/11 08:47:52;;;;;;;3.22;1.67;;;21.20;40.60;;;;;;5033146;28;20037;-42
2020/12/11 08:50:39;;;;;;;3.15;1.95;;;21.10;40.50;;;;;;5031250;28;20923;-42
2020/12/11 08:53:07;;;;;;;3.10;2.03;;;21.20;40.50;;;;;;5032680;28;20071;-42
2020/12/11 08:55:33;;;;;;;4.05;2.22;;;21.10;40.50;;;;;;5033340;28;20017;-42
2020/12/11 08:57:59;;;;;;;2.03;1.83;;;21.10;40.50;;;;;;5048057;28;20036;-57
2020/12/11 09:00:25;;;;;;;2.33;1.73;;;21.20;40.60;;;;;;5033316;28;20061;-48
2020/12/11 09:02:51;;;;;;;5.85;2.28;;;21.20;40.50;;;;;;5025158;28;20438;-43
2020/12/11 09:05:16;;;;;;;2.35;1.55;;;21.20;40.80;;;;;;5031093;28;20124;-43
2020/12/11 09:07:42;;;;;;;4.75;2.10;;;21.20;41.20;;;;;;5048403;28;20029;-53
2020/12/11 09:10:08;;;;;;;3.60;2.47;;;21.20;41.50;;;;;;5032025;28;20118;-43
2020/12/11 09:12:37;;;;;;;4.53;2.55;;;21.10;41.60;;;;;;5031958;28;20038;-42
2020/12/11 09:15:07;;;;;;;5.43;2.42;;;21.10;41.80;;;;;;5032240;28;20033;-43
2020/12/11 09:17:33;;;;;;;3.67;2.38;;;21.10;41.50;;;;;;5033220;28;20025;-42
2020/12/11 09:19:59;;;;;;;2.85;2.22;;;21.10;41.40;;;;;;5032445;28;20115;-62
2020/12/11 09:22:25;;;;;;;4.75;3.03;;;21.10;41.20;;;;;;5031715;28;20026;-43
2020/12/11 09:24:50;;;;;;;4.18;2.78;;;21.00;41.20;;;;;;5032586;28;20524;-43
2020/12/11 09:27:16;;;;;;;6.55;3.28;;;21.00;41.00;;;;;;5031624;28;20045;-45
2020/12/11 09:29:45;;;;;;;9.98;8.40;;;20.90;40.30;;;;;;5032528;28;20075;-44
2020/12/11 09:32:17;;;;;;;12.50;9.00;;;19.90;31.60;;;;;;5031819;28;20075;-46
2020/12/11 09:34:42;;;;;;;10.77;8.57;;;18.80;31.90;;;;;;5025089;28;20128;-46
2020/12/11 09:37:08;;;;;;;15.20;8.73;;;18.20;31.80;;;;;;5030266;28;20030;-45
2020/12/11 09:39:34;;;;;;;13.70;9.02;;;17.80;32.30;;;;;;5032931;28;20026;-44
2020/12/11 09:55:11;;;;;;;10.77;8.35;;;17.00;32.60;;;;;;5031238;28;20040;-44
2020/12/11 09:57:37;;;;;;;11.95;8.27;;;16.90;32.90;;;;;;5030916;28;20037;-44
2020/12/11 10:00:06;;;;;;;13.23;8.35;;;16.80;33.50;;;;;;5031554;28;20482;-44
2020/12/11 10:03:19;;;;;;;9.10;7.57;;;16.70;33.00;;;;;;5047294;28;20037;-40
2020/12/11 10:05:19;;;;;;;12.95;8.25;;;16.50;33.20;;;;;;5026764;28;20049;-43
2020/12/11 10:07:44;;;;;;;12.48;9.07;;;16.60;33.20;;;;;;5031825;28;20037;-44
2020/12/11 10:10:10;;;;;;;12.05;8.80;;;16.50;33.10;;;;;;5027001;28;20051;-44
2020/12/11 10:12:35;;;;;;;10.68;8.75;;;16.40;33.90;;;;;;5031892;28;20128;-43
2020/12/11 10:15:07;;;;;;;14.10;6.65;;;16.50;33.30;;;;;;5031476;28;20033;-53
2020/12/11 10:17:33;;;;;;;7.82;6.25;;;17.40;33.40;;;;;;5031696;28;20025;-43
2020/12/11 10:19:59;;;;;;;8.88;6.05;;;18.00;33.80;;;;;;5032060;28;20397;-48
2020/12/11 10:22:24;;;;;;;10.55;6.22;;;18.50;34.20;;;;;;5031009;28;20108;-43
2020/12/11 10:24:50;;;;;;;7.20;5.25;;;18.80;34.20;;;;;;5031697;28;20451;-42
2020/12/11 10:27:16;;;;;;;5.97;4.82;;;19.00;35.20;;;;;;5030425;28;20129;-44
2020/12/11 10:29:42;;;;;;;8.85;4.22;;;19.10;35.20;;;;;;5031365;28;20466;-43
2020/12/11 10:32:08;;;;;;;5.95;4.30;;;19.20;35.40;;;;;;5029350;28;20048;-41
2020/12/11 10:34:35;;;;;;;5.32;3.55;;;19.40;35.10;;;;;;5031245;28;20048;-41
2020/12/11 10:37:12;;;;;;;8.13;3.40;;;19.60;34.90;;;;;;5031263;28;20025;-53
2020/12/11 10:39:41;;;;;;;5.95;3.58;;;19.70;34.80;;;;;;5031438;28;20038;-44
2020/12/11 10:42:07;;;;;;;7.63;3.60;;;19.70;35.10;;;;;;5030551;28;20405;-44
2020/12/11 10:44:33;;;;;;;7.55;3.08;;;19.80;35.30;;;;;;5031742;28;20033;-47
2020/12/11 10:46:59;;;;;;;12.35;5.15;;;19.80;35.40;;;;;;5030688;28;20475;-43
2020/12/11 10:49:25;;;;;;;11.57;4.57;;;19.80;35.80;;;;;;5030496;28;20041;-42
2020/12/11 10:51:51;;;;;;;8.27;4.78;;;19.70;36.20;;;;;;5031371;28;20116;-42
2020/12/11 10:54:18;;;;;;;11.15;5.25;;;19.70;36.70;;;;;;5030734;28;20390;-40
2020/12/11 10:56:45;;;;;;;9.90;4.78;;;19.60;36.70;;;;;;5030860;28;20025;-42
2020/12/11 10:59:11;;;;;;;12.27;6.05;;;19.50;36.50;;;;;;5030444;28;20037;-43
2020/12/11 11:01:36;;;;;;;12.15;5.65;;;19.60;36.70;;;;;;5032912;28;20026;-42
2020/12/11 11:04:02;;;;;;;12.60;5.10;;;19.60;36.30;;;;;;5027625;28;20037;-55
2020/12/11 11:06:43;;;;;;;13.63;4.95;;;19.80;36.20;;;;;;5022037;28;20037;-44
2020/12/11 11:19:56;;;;;;;9.30;4.75;;;20.00;37.70;;;;;;5035165;28;20040;-43
2020/12/11 11:27:44;;;;;;;4.77;2.93;;;20.20;37.80;;;;;;5033983;28;20049;-42
2020/12/11 11:30:10;;;;;;;11.18;3.58;;;20.20;38.00;;;;;;5026127;28;20327;-43
2020/12/11 11:32:35;;;;;;;8.45;3.20;;;20.30;38.10;;;;;;5034777;28;20082;-44
2020/12/11 11:35:02;;;;;;;9.88;3.05;;;20.40;38.10;;;;;;5050090;28;20037;-57
2020/12/11 11:37:29;;;;;;;5.72;3.00;;;20.40;38.00;;;;;;5031310;28;20053;-44
2020/12/11 11:39:54;;;;;;;8.57;3.08;;;20.40;37.60;;;;;;5034123;28;20033;-44
2020/12/11 11:42:20;;;;;;;5.78;3.40;;;20.30;37.70;;;;;;5031786;28;20034;-44
2020/12/11 11:44:52;;;;;;;4.60;2.70;;;20.40;37.70;;;;;;5034315;28;20459;-45
2020/12/11 11:47:18;;;;;;;6.25;2.33;;;20.40;37.80;;;;;;5031278;28;20025;-45
2020/12/11 11:52:42;;;;;;;4.57;2.65;;;20.40;37.50;;;;;;5022547;28;20549;-49
2020/12/11 11:55:11;;;;;;;3.90;2.53;;;20.50;37.40;;;;;;5032454;28;20033;-47
2020/12/11 11:57:38;;;;;;;4.32;2.28;;;20.40;37.20;;;;;;5032944;28;20429;-46
2020/12/11 12:00:09;;;;;;;3.85;2.15;;;20.60;38.00;;;;;;5033529;28;20061;-58
2020/12/11 12:02:35;;;;;;;3.75;2.13;;;20.60;37.90;;;;;;5034112;28;20463;-47
2020/12/11 12:05:01;;;;;;;8.45;2.22;;;20.70;37.90;;;;;;5033850;28;20387;-49
2020/12/11 12:07:28;;;;;;;4.80;1.92;;;20.70;38.00;;;;;;5032956;28;20025;-45
2020/12/11 12:09:54;;;;;;;4.32;2.30;;;20.70;37.90;;;;;;5033872;28;20029;-47
2020/12/11 12:12:20;;;;;;;4.60;2.20;;;20.80;37.90;;;;;;5032833;28;20029;-49
2020/12/11 12:14:48;;;;;;;4.78;2.17;;;20.80;37.80;;;;;;5033302;28;20036;-47
2020/12/11 12:17:14;;;;;;;7.38;1.88;;;20.90;37.90;;;;;;5032813;28;20030;-50
2020/12/11 12:19:46;;;;;;;5.18;2.53;;;21.00;37.80;;;;;;5025727;28;20052;-46
2020/12/11 12:29:48;;;;;;;2.65;1.60;;;20.90;38.00;;;;;;5033918;28;20042;-46
2020/12/11 12:32:16;;;;;;;4.72;2.33;;;21.00;38.20;;;;;;5033186;28;20364;-47
2020/12/11 12:34:55;;;;;;;15.73;3.65;;;21.00;38.20;;;;;;5033294;28;20040;-45
2020/12/11 12:45:04;;;;;;;6.13;1.75;;;21.10;38.20;;;;;;5033646;28;20375;-44
2020/12/11 12:47:30;;;;;;;2.53;1.73;;;21.10;38.40;;;;;;5032413;28;20038;-44
2020/12/11 12:49:55;;;;;;;5.18;2.22;;;21.10;38.50;;;;;;5033490;28;20033;-45
2020/12/11 12:52:21;;;;;;;3.45;1.63;;;21.10;38.50;;;;;;5032304;28;20118;-42
2020/12/11 12:54:46;;;;;;;9.85;2.00;;;21.20;38.70;;;;;;5033680;28;20022;-46
2020/12/11 12:57:21;;;;;;;3.88;1.50;;;21.30;38.50;;;;;;5032749;28;20033;-45
2020/12/11 12:59:52;;;;;;;3.58;1.60;;;21.30;39.10;;;;;;5032852;28;20447;-41
2020/12/11 13:05:19;;;;;;;7.85;1.83;;;21.40;38.80;;;;;;5032633;28;20044;-45
2020/12/11 13:07:38;;;;;;;;;;;21.40;38.40;;;;;;5030348;28;20124;-47
2020/12/11 13:10:06;;;;;;;9.80;1.60;;;21.30;38.60;;;;;;5032818;28;20111;-46
2020/12/11 13:12:31;;;;;;;5.32;1.83;;;21.40;38.60;;;;;;5032323;28;20029;-42
2020/12/11 13:14:57;;;;;;;4.90;1.90;;;21.40;38.60;;;;;;5032733;28;20481;-44
2020/12/11 13:17:23;;;;;;;6.57;1.80;;;21.40;38.60;;;;;;5031418;28;20064;-46
2020/12/11 13:19:49;;;;;;;5.53;1.90;;;21.40;38.40;;;;;;5033317;28;20034;-43
2020/12/11 13:27:31;;;;;;;3.60;1.40;;;21.50;38.50;;;;;;5032061;28;20160;-43
2020/12/11 13:29:58;;;;;;;4.55;2.03;;;21.50;38.50;;;;;;5032337;28;20029;-43
2020/12/11 13:32:26;;;;;;;6.30;1.90;;;21.50;38.50;;;;;;5031839;28;20434;-44
2020/12/11 13:34:52;;;;;;;4.28;1.63;;;21.50;38.50;;;;;;5032372;28;20026;-43
2020/12/11 13:37:18;;;;;;;4.38;1.50;;;21.60;38.50;;;;;;5031160;28;20025;-47
2020/12/11 13:39:45;;;;;;;4.35;1.60;;;21.60;38.50;;;;;;5031628;28;20459;-43
2020/12/11 13:42:12;;;;;;;2.70;1.63;;;21.60;38.30;;;;;;5031834;28;20072;-46
2020/12/11 13:44:38;;;;;;;2.60;1.50;;;21.60;38.40;;;;;;5029977;28;20034;-42
2020/12/11 13:47:06;;;;;;;2.97;1.65;;;21.70;38.50;;;;;;5030525;28;20029;-44
2020/12/11 13:49:33;;;;;;;4.57;1.60;;;21.70;38.50;;;;;;5030148;28;20095;-41